sensor_id;sensor_type;location;lat;lon;timestamp;P1;durP1;ratioP1;P2;durP2;ratioP2
30000;SDS011;16845;48.670;9.000;2023-07-30T00:00:36;10.43;;;7.97;;
30000;SDS011;16845;48.670;9.000;2023-07-30T00:03:02;13.85;;;7.32;;
30000;SDS011;16845;48.670;9.000;2023-07-30T00:05:29;11.93;;;7.70;;
30000;SDS011;16845;48.670;9.000;2023-07-30T00:07:56;6.97;;;6.22;;
30000;SDS011;16845;48.670;9.000;2023-07-30T00:10:23;10.02;;;6.65;;
30000;SDS011;16845;48.670;9.000;2023-07-30T00:12:50;8.60;;;6.38;;
30000;SDS011;16845;48.670;9.000;2023-07-30T00:15:17;9.65;;;6.32;;
30000;SDS011;16845;48.670;9.000;2023-07-30T00:17:43;9.17;;;6.77;;
30000;SDS011;16845;48.670;9.000;2023-07-30T00:20:10;10.50;;;5.77;;
30000;SDS011;16845;48.670;9.000;2023-07-30T00:22:36;10.10;;;6.55;;
30000;SDS011;16845;48.670;9.000;2023-07-30T00:25:03;10.93;;;6.05;;
30000;SDS011;16845;48.670;9.000;2023-07-30T00:27:32;15.07;;;5.60;;
30000;SDS011;16845;48.670;9.000;2023-07-30T00:29:58;7.38;;;5.15;;
30000;SDS011;16845;48.670;9.000;2023-07-30T00:32:25;6.72;;;5.28;;
30000;SDS011;16845;48.670;9.000;2023-07-30T00:34:51;8.07;;;5.75;;
30000;SDS011;16845;48.670;9.000;2023-07-30T00:37:18;8.85;;;6.13;;
30000;SDS011;16845;48.670;9.000;2023-07-30T00:39:44;6.68;;;5.25;;
30000;SDS011;16845;48.670;9.000;2023-07-30T00:42:11;9.95;;;5.63;;
30000;SDS011;16845;48.670;9.000;2023-07-30T00:44:39;7.50;;;6.18;;
30000;SDS011;16845;48.670;9.000;2023-07-30T00:47:05;8.43;;;4.90;;
30000;SDS011;16845;48.670;9.000;2023-07-30T00:49:32;7.33;;;5.97;;
30000;SDS011;16845;48.670;9.000;2023-07-30T00:51:58;6.90;;;4.43;;
30000;SDS011;16845;48.670;9.000;2023-07-30T00:54:25;6.70;;;5.18;;
30000;SDS011;16845;48.670;9.000;2023-07-30T00:56:52;8.53;;;5.70;;
30000;SDS011;16845;48.670;9.000;2023-07-30T00:59:19;8.25;;;5.35;;
30000;SDS011;16845;48.670;9.000;2023-07-30T01:01:47;8.20;;;4.93;;
30000;SDS011;16845;48.670;9.000;2023-07-30T01:04:17;5.65;;;4.90;;
30000;SDS011;16845;48.670;9.000;2023-07-30T01:06:43;8.60;;;5.13;;
30000;SDS011;16845;48.670;9.000;2023-07-30T01:09:10;7.80;;;4.90;;
30000;SDS011;16845;48.670;9.000;2023-07-30T01:11:37;8.68;;;4.57;;
30000;SDS011;16845;48.670;9.000;2023-07-30T01:14:06;6.55;;;4.22;;
30000;SDS011;16845;48.670;9.000;2023-07-30T01:16:33;5.15;;;4.35;;
30000;SDS011;16845;48.670;9.000;2023-07-30T01:19:01;7.23;;;4.87;;
30000;SDS011;16845;48.670;9.000;2023-07-30T01:21:29;7.75;;;4.45;;
30000;SDS011;16845;48.670;9.000;2023-07-30T01:23:56;5.20;;;4.50;;
30000;SDS011;16845;48.670;9.000;2023-07-30T01:26:23;7.13;;;4.68;;
30000;SDS011;16845;48.670;9.000;2023-07-30T01:28:54;6.88;;;4.72;;
30000;SDS011;16845;48.670;9.000;2023-07-30T01:31:23;6.70;;;3.90;;
30000;SDS011;16845;48.670;9.000;2023-07-30T01:33:52;7.68;;;4.55;;
30000;SDS011;16845;48.670;9.000;2023-07-30T01:36:21;12.20;;;4.25;;
30000;SDS011;16845;48.670;9.000;2023-07-30T01:38:49;12.95;;;5.10;;
30000;SDS011;16845;48.670;9.000;2023-07-30T01:41:17;4.97;;;4.22;;
30000;SDS011;16845;48.670;9.000;2023-07-30T01:43:43;5.07;;;4.53;;
30000;SDS011;16845;48.670;9.000;2023-07-30T01:46:10;7.10;;;4.18;;
30000;SDS011;16845;48.670;9.000;2023-07-30T01:48:36;7.03;;;4.60;;
30000;SDS011;16845;48.670;9.000;2023-07-30T01:51:03;4.75;;;3.58;;
30000;SDS011;16845;48.670;9.000;2023-07-30T01:53:29;11.00;;;3.55;;
30000;SDS011;16845;48.670;9.000;2023-07-30T01:55:57;5.82;;;4.10;;
30000;SDS011;16845;48.670;9.000;2023-07-30T01:58:24;4.25;;;3.40;;
30000;SDS011;16845;48.670;9.000;2023-07-30T02:00:50;6.07;;;4.13;;
30000;SDS011;16845;48.670;9.000;2023-07-30T02:03:17;10.27;;;3.90;;
30000;SDS011;16845;48.670;9.000;2023-07-30T02:05:43;6.70;;;3.43;;
30000;SDS011;16845;48.670;9.000;2023-07-30T02:08:10;8.82;;;3.38;;
30000;SDS011;16845;48.670;9.000;2023-07-30T02:10:37;4.78;;;3.28;;
30000;SDS011;16845;48.670;9.000;2023-07-30T02:13:04;3.45;;;3.08;;
30000;SDS011;16845;48.670;9.000;2023-07-30T02:15:31;5.88;;;3.42;;
30000;SDS011;16845;48.670;9.000;2023-07-30T02:17:57;8.48;;;3.65;;
30000;SDS011;16845;48.670;9.000;2023-07-30T02:20:24;5.93;;;2.93;;
30000;SDS011;16845;48.670;9.000;2023-07-30T02:22:51;4.70;;;3.30;;
30000;SDS011;16845;48.670;9.000;2023-07-30T02:25:17;5.82;;;3.58;;
30000;SDS011;16845;48.670;9.000;2023-07-30T02:27:44;3.38;;;2.97;;
30000;SDS011;16845;48.670;9.000;2023-07-30T02:30:12;5.25;;;3.60;;
30000;SDS011;16845;48.670;9.000;2023-07-30T02:32:38;4.25;;;3.08;;
30000;SDS011;16845;48.670;9.000;2023-07-30T02:35:05;4.10;;;3.20;;
30000;SDS011;16845;48.670;9.000;2023-07-30T02:37:32;3.40;;;3.00;;
30000;SDS011;16845;48.670;9.000;2023-07-30T02:39:58;5.82;;;3.20;;
30000;SDS011;16845;48.670;9.000;2023-07-30T02:42:25;7.45;;;3.75;;
30000;SDS011;16845;48.670;9.000;2023-07-30T02:44:51;5.13;;;3.75;;
30000;SDS011;16845;48.670;9.000;2023-07-30T02:47:19;3.75;;;3.10;;
30000;SDS011;16845;48.670;9.000;2023-07-30T02:49:45;4.45;;;3.65;;
30000;SDS011;16845;48.670;9.000;2023-07-30T02:52:12;4.95;;;4.40;;
30000;SDS011;16845;48.670;9.000;2023-07-30T02:54:38;7.07;;;4.10;;
30000;SDS011;16845;48.670;9.000;2023-07-30T02:57:05;5.80;;;3.45;;
30000;SDS011;16845;48.670;9.000;2023-07-30T02:59:31;4.53;;;3.70;;
30000;SDS011;16845;48.670;9.000;2023-07-30T03:01:58;15.88;;;3.72;;
30000;SDS011;16845;48.670;9.000;2023-07-30T03:04:26;5.65;;;3.90;;
30000;SDS011;16845;48.670;9.000;2023-07-30T03:06:52;5.20;;;3.40;;
30000;SDS011;16845;48.670;9.000;2023-07-30T03:09:19;8.10;;;4.25;;
30000;SDS011;16845;48.670;9.000;2023-07-30T03:11:45;5.65;;;4.65;;
30000;SDS011;16845;48.670;9.000;2023-07-30T03:14:12;6.50;;;4.18;;
30000;SDS011;16845;48.670;9.000;2023-07-30T03:16:38;6.57;;;3.88;;
30000;SDS011;16845;48.670;9.000;2023-07-30T03:19:05;4.82;;;4.07;;
30000;SDS011;16845;48.670;9.000;2023-07-30T03:21:32;8.13;;;4.32;;
30000;SDS011;16845;48.670;9.000;2023-07-30T03:23:59;10.90;;;4.32;;
30000;SDS011;16845;48.670;9.000;2023-07-30T03:26:25;4.50;;;3.87;;
30000;SDS011;16845;48.670;9.000;2023-07-30T03:28:52;6.18;;;4.70;;
30000;SDS011;16845;48.670;9.000;2023-07-30T03:31:18;4.70;;;3.70;;
30000;SDS011;16845;48.670;9.000;2023-07-30T03:33:45;8.38;;;4.05;;
30000;SDS011;16845;48.670;9.000;2023-07-30T03:36:12;8.00;;;4.13;;
30000;SDS011;16845;48.670;9.000;2023-07-30T03:41:07;7.40;;;4.82;;
30000;SDS011;16845;48.670;9.000;2023-07-30T03:43:33;6.07;;;4.57;;
30000;SDS011;16845;48.670;9.000;2023-07-30T03:46:00;6.78;;;4.15;;
30000;SDS011;16845;48.670;9.000;2023-07-30T03:48:27;12.25;;;4.90;;
30000;SDS011;16845;48.670;9.000;2023-07-30T03:50:54;13.25;;;4.80;;
30000;SDS011;16845;48.670;9.000;2023-07-30T03:53:21;5.45;;;4.40;;
30000;SDS011;16845;48.670;9.000;2023-07-30T03:55:49;6.05;;;3.97;;
30000;SDS011;16845;48.670;9.000;2023-07-30T03:58:16;8.70;;;3.65;;
30000;SDS011;16845;48.670;9.000;2023-07-30T04:00:42;5.70;;;4.32;;
30000;SDS011;16845;48.670;9.000;2023-07-30T04:03:09;16.77;;;5.40;;
30000;SDS011;16845;48.670;9.000;2023-07-30T04:05:35;11.87;;;4.67;;
30000;SDS011;16845;48.670;9.000;2023-07-30T04:08:02;8.32;;;4.40;;
30000;SDS011;16845;48.670;9.000;2023-07-30T04:10:29;6.97;;;3.92;;
30000;SDS011;16845;48.670;9.000;2023-07-30T04:12:57;4.47;;;3.80;;
30000;SDS011;16845;48.670;9.000;2023-07-30T04:15:23;5.93;;;3.67;;
30000;SDS011;16845;48.670;9.000;2023-07-30T04:17:50;9.27;;;4.10;;
30000;SDS011;16845;48.670;9.000;2023-07-30T04:20:16;8.53;;;3.90;;
30000;SDS011;16845;48.670;9.000;2023-07-30T04:22:43;6.25;;;3.85;;
30000;SDS011;16845;48.670;9.000;2023-07-30T04:25:09;4.53;;;3.65;;
30000;SDS011;16845;48.670;9.000;2023-07-30T04:27:36;6.63;;;4.32;;
30000;SDS011;16845;48.670;9.000;2023-07-30T04:30:05;4.60;;;3.10;;
30000;SDS011;16845;48.670;9.000;2023-07-30T04:32:32;6.13;;;4.18;;
30000;SDS011;16845;48.670;9.000;2023-07-30T04:34:59;9.45;;;4.05;;
30000;SDS011;16845;48.670;9.000;2023-07-30T04:37:25;5.38;;;3.65;;
30000;SDS011;16845;48.670;9.000;2023-07-30T04:39:52;4.22;;;3.53;;
30000;SDS011;16845;48.670;9.000;2023-07-30T04:42:18;5.88;;;3.83;;
30000;SDS011;16845;48.670;9.000;2023-07-30T04:44:45;4.43;;;3.72;;
30000;SDS011;16845;48.670;9.000;2023-07-30T04:47:13;3.92;;;3.28;;
30000;SDS011;16845;48.670;9.000;2023-07-30T04:49:39;5.45;;;3.67;;
30000;SDS011;16845;48.670;9.000;2023-07-30T04:52:06;7.70;;;3.72;;
30000;SDS011;16845;48.670;9.000;2023-07-30T04:54:33;5.07;;;3.72;;
30000;SDS011;16845;48.670;9.000;2023-07-30T04:56:59;6.68;;;3.30;;
30000;SDS011;16845;48.670;9.000;2023-07-30T04:59:26;5.60;;;3.58;;
30000;SDS011;16845;48.670;9.000;2023-07-30T05:01:52;8.77;;;3.85;;
30000;SDS011;16845;48.670;9.000;2023-07-30T05:04:20;4.38;;;2.88;;
30000;SDS011;16845;48.670;9.000;2023-07-30T05:06:46;9.48;;;3.33;;
30000;SDS011;16845;48.670;9.000;2023-07-30T05:09:13;5.57;;;2.90;;
30000;SDS011;16845;48.670;9.000;2023-07-30T05:11:39;7.70;;;4.13;;
30000;SDS011;16845;48.670;9.000;2023-07-30T05:14:06;6.22;;;3.28;;
30000;SDS011;16845;48.670;9.000;2023-07-30T05:16:33;7.23;;;3.57;;
30000;SDS011;16845;48.670;9.000;2023-07-30T05:18:59;8.30;;;3.30;;
30000;SDS011;16845;48.670;9.000;2023-07-30T05:21:27;9.90;;;3.45;;
30000;SDS011;16845;48.670;9.000;2023-07-30T05:23:54;4.82;;;3.22;;
30000;SDS011;16845;48.670;9.000;2023-07-30T05:26:20;4.22;;;3.42;;
30000;SDS011;16845;48.670;9.000;2023-07-30T05:28:46;16.40;;;3.83;;
30000;SDS011;16845;48.670;9.000;2023-07-30T05:31:13;5.43;;;2.80;;
30000;SDS011;16845;48.670;9.000;2023-07-30T05:33:39;4.37;;;3.33;;
30000;SDS011;16845;48.670;9.000;2023-07-30T05:36:06;3.30;;;3.00;;
30000;SDS011;16845;48.670;9.000;2023-07-30T05:38:34;5.63;;;3.30;;
30000;SDS011;16845;48.670;9.000;2023-07-30T05:41:00;4.65;;;3.22;;
30000;SDS011;16845;48.670;9.000;2023-07-30T05:43:27;7.10;;;3.33;;
30000;SDS011;16845;48.670;9.000;2023-07-30T05:45:53;5.30;;;3.40;;
30000;SDS011;16845;48.670;9.000;2023-07-30T05:48:20;3.65;;;3.35;;
30000;SDS011;16845;48.670;9.000;2023-07-30T05:50:46;5.20;;;3.25;;
30000;SDS011;16845;48.670;9.000;2023-07-30T05:53:13;3.35;;;2.53;;
30000;SDS011;16845;48.670;9.000;2023-07-30T05:55:41;5.72;;;2.75;;
30000;SDS011;16845;48.670;9.000;2023-07-30T05:58:07;3.22;;;2.35;;
30000;SDS011;16845;48.670;9.000;2023-07-30T06:00:34;6.57;;;3.00;;
30000;SDS011;16845;48.670;9.000;2023-07-30T06:03:01;6.47;;;3.00;;
30000;SDS011;16845;48.670;9.000;2023-07-30T06:05:27;4.78;;;2.88;;
30000;SDS011;16845;48.670;9.000;2023-07-30T06:07:54;4.30;;;2.92;;
30000;SDS011;16845;48.670;9.000;2023-07-30T06:10:20;5.53;;;2.90;;
30000;SDS011;16845;48.670;9.000;2023-07-30T06:12:48;6.05;;;3.83;;
30000;SDS011;16845;48.670;9.000;2023-07-30T06:15:15;4.80;;;3.08;;
30000;SDS011;16845;48.670;9.000;2023-07-30T06:17:41;4.25;;;3.08;;
30000;SDS011;16845;48.670;9.000;2023-07-30T06:20:08;5.70;;;2.63;;
30000;SDS011;16845;48.670;9.000;2023-07-30T06:22:35;7.18;;;3.03;;
30000;SDS011;16845;48.670;9.000;2023-07-30T06:25:02;6.07;;;3.00;;
30000;SDS011;16845;48.670;9.000;2023-07-30T06:27:29;3.83;;;2.45;;
30000;SDS011;16845;48.670;9.000;2023-07-30T06:29:57;3.03;;;1.85;;
30000;SDS011;16845;48.670;9.000;2023-07-30T06:32:23;4.80;;;2.40;;
30000;SDS011;16845;48.670;9.000;2023-07-30T06:34:50;5.43;;;2.60;;
30000;SDS011;16845;48.670;9.000;2023-07-30T06:37:16;4.13;;;2.92;;
30000;SDS011;16845;48.670;9.000;2023-07-30T06:39:43;6.72;;;1.98;;
30000;SDS011;16845;48.670;9.000;2023-07-30T06:42:09;3.00;;;2.00;;
30000;SDS011;16845;48.670;9.000;2023-07-30T06:44:36;2.67;;;1.95;;
30000;SDS011;16845;48.670;9.000;2023-07-30T06:47:04;1.90;;;1.70;;
30000;SDS011;16845;48.670;9.000;2023-07-30T06:49:31;3.55;;;1.45;;
30000;SDS011;16845;48.670;9.000;2023-07-30T06:51:57;5.95;;;1.40;;
30000;SDS011;16845;48.670;9.000;2023-07-30T06:54:24;3.88;;;1.92;;
30000;SDS011;16845;48.670;9.000;2023-07-30T06:56:50;2.67;;;1.80;;
30000;SDS011;16845;48.670;9.000;2023-07-30T06:59:17;2.45;;;2.15;;
30000;SDS011;16845;48.670;9.000;2023-07-30T07:01:43;2.42;;;2.00;;
30000;SDS011;16845;48.670;9.000;2023-07-30T07:04:11;2.33;;;1.47;;
30000;SDS011;16845;48.670;9.000;2023-07-30T07:06:37;2.88;;;1.60;;
30000;SDS011;16845;48.670;9.000;2023-07-30T07:09:04;7.47;;;1.90;;
30000;SDS011;16845;48.670;9.000;2023-07-30T07:11:31;3.33;;;2.08;;
30000;SDS011;16845;48.670;9.000;2023-07-30T07:13:57;2.65;;;2.15;;
30000;SDS011;16845;48.670;9.000;2023-07-30T07:16:24;15.70;;;2.80;;
30000;SDS011;16845;48.670;9.000;2023-07-30T07:18:50;11.43;;;2.80;;
30000;SDS011;16845;48.670;9.000;2023-07-30T07:21:18;2.50;;;2.25;;
30000;SDS011;16845;48.670;9.000;2023-07-30T07:23:44;7.47;;;2.90;;
30000;SDS011;16845;48.670;9.000;2023-07-30T07:26:11;2.47;;;2.17;;
30000;SDS011;16845;48.670;9.000;2023-07-30T07:28:37;3.30;;;2.40;;
30000;SDS011;16845;48.670;9.000;2023-07-30T07:31:04;3.05;;;2.38;;
30000;SDS011;16845;48.670;9.000;2023-07-30T07:33:31;4.18;;;2.40;;
30000;SDS011;16845;48.670;9.000;2023-07-30T07:36:02;4.57;;;2.97;;
30000;SDS011;16845;48.670;9.000;2023-07-30T07:38:30;2.50;;;2.17;;
30000;SDS011;16845;48.670;9.000;2023-07-30T07:40:57;4.97;;;2.72;;
30000;SDS011;16845;48.670;9.000;2023-07-30T07:43:24;3.00;;;2.07;;
30000;SDS011;16845;48.670;9.000;2023-07-30T07:45:50;5.03;;;2.08;;
30000;SDS011;16845;48.670;9.000;2023-07-30T07:48:17;5.38;;;2.15;;
30000;SDS011;16845;48.670;9.000;2023-07-30T07:50:43;3.87;;;2.17;;
30000;SDS011;16845;48.670;9.000;2023-07-30T07:53:11;4.05;;;2.03;;
30000;SDS011;16845;48.670;9.000;2023-07-30T07:55:38;2.97;;;2.05;;
30000;SDS011;16845;48.670;9.000;2023-07-30T07:58:05;2.85;;;1.83;;
30000;SDS011;16845;48.670;9.000;2023-07-30T08:00:31;1.83;;;1.60;;
30000;SDS011;16845;48.670;9.000;2023-07-30T08:02:58;3.33;;;2.00;;
30000;SDS011;16845;48.670;9.000;2023-07-30T08:05:24;2.25;;;1.90;;
30000;SDS011;16845;48.670;9.000;2023-07-30T08:07:51;2.08;;;1.88;;
30000;SDS011;16845;48.670;9.000;2023-07-30T08:10:17;2.30;;;2.05;;
30000;SDS011;16845;48.670;9.000;2023-07-30T08:12:46;3.58;;;2.00;;
30000;SDS011;16845;48.670;9.000;2023-07-30T08:15:12;2.13;;;1.75;;
30000;SDS011;16845;48.670;9.000;2023-07-30T08:17:39;2.78;;;1.92;;
30000;SDS011;16845;48.670;9.000;2023-07-30T08:20:06;3.33;;;1.50;;
30000;SDS011;16845;48.670;9.000;2023-07-30T08:22:33;1.20;;;1.10;;
30000;SDS011;16845;48.670;9.000;2023-07-30T08:25:00;6.57;;;1.57;;
30000;SDS011;16845;48.670;9.000;2023-07-30T08:27:26;3.00;;;2.00;;
30000;SDS011;16845;48.670;9.000;2023-07-30T08:29:54;1.70;;;1.42;;
30000;SDS011;16845;48.670;9.000;2023-07-30T08:32:21;4.32;;;1.77;;
30000;SDS011;16845;48.670;9.000;2023-07-30T08:34:47;3.40;;;1.40;;
30000;SDS011;16845;48.670;9.000;2023-07-30T08:37:14;3.40;;;1.52;;
30000;SDS011;16845;48.670;9.000;2023-07-30T08:39:40;2.22;;;1.48;;
30000;SDS011;16845;48.670;9.000;2023-07-30T08:42:07;3.40;;;1.63;;
30000;SDS011;16845;48.670;9.000;2023-07-30T08:44:33;1.57;;;1.40;;
30000;SDS011;16845;48.670;9.000;2023-07-30T08:47:02;2.92;;;1.42;;
30000;SDS011;16845;48.670;9.000;2023-07-30T08:49:30;2.10;;;1.83;;
30000;SDS011;16845;48.670;9.000;2023-07-30T08:51:56;1.80;;;1.70;;
30000;SDS011;16845;48.670;9.000;2023-07-30T08:54:23;2.70;;;1.90;;
30000;SDS011;16845;48.670;9.000;2023-07-30T08:56:50;3.67;;;1.77;;
30000;SDS011;16845;48.670;9.000;2023-07-30T08:59:17;1.92;;;1.40;;
30000;SDS011;16845;48.670;9.000;2023-07-30T09:01:45;1.73;;;1.63;;
30000;SDS011;16845;48.670;9.000;2023-07-30T09:04:17;3.42;;;1.80;;
30000;SDS011;16845;48.670;9.000;2023-07-30T09:06:44;3.50;;;1.48;;
30000;SDS011;16845;48.670;9.000;2023-07-30T09:09:17;1.35;;;1.25;;
30000;SDS011;16845;48.670;9.000;2023-07-30T09:11:45;2.90;;;1.53;;
30000;SDS011;16845;48.670;9.000;2023-07-30T09:14:18;5.85;;;1.60;;
30000;SDS011;16845;48.670;9.000;2023-07-30T09:16:45;6.43;;;2.20;;
30000;SDS011;16845;48.670;9.000;2023-07-30T09:19:17;1.85;;;1.73;;
30000;SDS011;16845;48.670;9.000;2023-07-30T09:21:43;2.80;;;1.85;;
30000;SDS011;16845;48.670;9.000;2023-07-30T09:24:10;4.10;;;1.63;;
30000;SDS011;16845;48.670;9.000;2023-07-30T09:26:41;4.57;;;2.33;;
30000;SDS011;16845;48.670;9.000;2023-07-30T09:29:08;4.68;;;1.90;;
30000;SDS011;16845;48.670;9.000;2023-07-30T09:31:48;3.15;;;1.83;;
30000;SDS011;16845;48.670;9.000;2023-07-30T09:34:17;4.28;;;2.28;;
30000;SDS011;16845;48.670;9.000;2023-07-30T09:36:44;4.25;;;2.28;;
30000;SDS011;16845;48.670;9.000;2023-07-30T09:39:14;3.45;;;2.28;;
30000;SDS011;16845;48.670;9.000;2023-07-30T09:41:41;2.72;;;2.25;;
30000;SDS011;16845;48.670;9.000;2023-07-30T09:44:08;2.05;;;1.77;;
30000;SDS011;16845;48.670;9.000;2023-07-30T09:46:39;2.83;;;2.53;;
30000;SDS011;16845;48.670;9.000;2023-07-30T09:49:08;3.55;;;1.67;;
30000;SDS011;16845;48.670;9.000;2023-07-30T09:51:36;2.25;;;1.80;;
30000;SDS011;16845;48.670;9.000;2023-07-30T09:54:04;4.07;;;1.80;;
30000;SDS011;16845;48.670;9.000;2023-07-30T09:56:32;2.33;;;2.03;;
30000;SDS011;16845;48.670;9.000;2023-07-30T09:58:58;3.80;;;1.23;;
30000;SDS011;16845;48.670;9.000;2023-07-30T10:01:25;3.20;;;1.60;;
30000;SDS011;16845;48.670;9.000;2023-07-30T10:03:54;3.38;;;1.70;;
30000;SDS011;16845;48.670;9.000;2023-07-30T10:06:23;1.80;;;1.60;;
30000;SDS011;16845;48.670;9.000;2023-07-30T10:08:53;3.13;;;1.80;;
30000;SDS011;16845;48.670;9.000;2023-07-30T10:11:23;4.82;;;1.60;;
30000;SDS011;16845;48.670;9.000;2023-07-30T10:13:51;2.67;;;1.77;;
30000;SDS011;16845;48.670;9.000;2023-07-30T10:16:19;2.50;;;1.45;;
30000;SDS011;16845;48.670;9.000;2023-07-30T10:18:53;3.03;;;1.45;;
30000;SDS011;16845;48.670;9.000;2023-07-30T10:21:22;1.40;;;1.30;;
30000;SDS011;16845;48.670;9.000;2023-07-30T10:23:58;3.33;;;1.38;;
30000;SDS011;16845;48.670;9.000;2023-07-30T10:26:29;1.67;;;1.52;;
30000;SDS011;16845;48.670;9.000;2023-07-30T10:29:09;4.35;;;2.15;;
30000;SDS011;16845;48.670;9.000;2023-07-30T10:31:39;3.63;;;1.75;;
30000;SDS011;16845;48.670;9.000;2023-07-30T10:34:07;4.65;;;1.80;;
30000;SDS011;16845;48.670;9.000;2023-07-30T10:36:36;2.67;;;1.92;;
30000;SDS011;16845;48.670;9.000;2023-07-30T10:39:12;5.78;;;1.80;;
30000;SDS011;16845;48.670;9.000;2023-07-30T10:41:39;3.53;;;1.80;;
30000;SDS011;16845;48.670;9.000;2023-07-30T10:44:17;2.92;;;1.70;;
30000;SDS011;16845;48.670;9.000;2023-07-30T10:46:44;5.22;;;1.92;;
30000;SDS011;16845;48.670;9.000;2023-07-30T10:49:10;2.30;;;1.60;;
30000;SDS011;16845;48.670;9.000;2023-07-30T10:51:37;3.72;;;1.70;;
30000;SDS011;16845;48.670;9.000;2023-07-30T10:54:05;3.03;;;1.92;;
30000;SDS011;16845;48.670;9.000;2023-07-30T10:56:34;2.28;;;1.50;;
30000;SDS011;16845;48.670;9.000;2023-07-30T10:59:02;2.20;;;1.42;;
30000;SDS011;16845;48.670;9.000;2023-07-30T11:01:30;2.25;;;1.48;;
30000;SDS011;16845;48.670;9.000;2023-07-30T11:03:57;2.22;;;1.88;;
30000;SDS011;16845;48.670;9.000;2023-07-30T11:06:24;2.30;;;2.00;;
30000;SDS011;16845;48.670;9.000;2023-07-30T11:08:52;4.97;;;1.83;;
30000;SDS011;16845;48.670;9.000;2023-07-30T11:11:18;3.55;;;2.10;;
30000;SDS011;16845;48.670;9.000;2023-07-30T11:13:46;2.67;;;2.30;;
30000;SDS011;16845;48.670;9.000;2023-07-30T11:16:13;4.30;;;1.63;;
30000;SDS011;16845;48.670;9.000;2023-07-30T11:18:41;3.88;;;1.75;;
30000;SDS011;16845;48.670;9.000;2023-07-30T11:21:09;5.18;;;2.08;;
30000;SDS011;16845;48.670;9.000;2023-07-30T11:23:37;4.30;;;1.40;;
30000;SDS011;16845;48.670;9.000;2023-07-30T11:26:06;4.50;;;1.92;;
30000;SDS011;16845;48.670;9.000;2023-07-30T11:28:34;4.13;;;1.60;;
30000;SDS011;16845;48.670;9.000;2023-07-30T11:31:05;4.15;;;1.65;;
30000;SDS011;16845;48.670;9.000;2023-07-30T11:33:34;4.85;;;1.48;;
30000;SDS011;16845;48.670;9.000;2023-07-30T11:36:02;5.15;;;1.60;;
30000;SDS011;16845;48.670;9.000;2023-07-30T11:38:29;2.63;;;1.83;;
30000;SDS011;16845;48.670;9.000;2023-07-30T11:40:56;5.78;;;1.50;;
30000;SDS011;16845;48.670;9.000;2023-07-30T11:46:05;2.95;;;1.63;;
30000;SDS011;16845;48.670;9.000;2023-07-30T11:48:35;2.38;;;1.63;;
30000;SDS011;16845;48.670;9.000;2023-07-30T11:51:02;2.72;;;1.95;;
30000;SDS011;16845;48.670;9.000;2023-07-30T11:53:44;2.30;;;1.45;;
30000;SDS011;16845;48.670;9.000;2023-07-30T11:56:16;3.03;;;1.33;;
30000;SDS011;16845;48.670;9.000;2023-07-30T11:58:43;2.20;;;1.88;;
30000;SDS011;16845;48.670;9.000;2023-07-30T12:01:11;3.83;;;2.10;;
30000;SDS011;16845;48.670;9.000;2023-07-30T12:03:38;2.65;;;1.70;;
30000;SDS011;16845;48.670;9.000;2023-07-30T12:06:05;1.98;;;1.80;;
30000;SDS011;16845;48.670;9.000;2023-07-30T12:08:33;3.10;;;2.05;;
30000;SDS011;16845;48.670;9.000;2023-07-30T12:11:02;4.05;;;1.83;;
30000;SDS011;16845;48.670;9.000;2023-07-30T12:13:29;2.70;;;1.60;;
30000;SDS011;16845;48.670;9.000;2023-07-30T12:15:56;3.83;;;1.90;;
30000;SDS011;16845;48.670;9.000;2023-07-30T12:18:25;2.75;;;2.10;;
30000;SDS011;16845;48.670;9.000;2023-07-30T12:20:53;3.50;;;2.05;;
30000;SDS011;16845;48.670;9.000;2023-07-30T12:23:19;4.20;;;2.33;;
30000;SDS011;16845;48.670;9.000;2023-07-30T12:25:46;2.63;;;2.00;;
30000;SDS011;16845;48.670;9.000;2023-07-30T12:28:13;4.32;;;2.30;;
30000;SDS011;16845;48.670;9.000;2023-07-30T12:30:39;3.50;;;2.33;;
30000;SDS011;16845;48.670;9.000;2023-07-30T12:33:06;2.37;;;2.10;;
30000;SDS011;16845;48.670;9.000;2023-07-30T12:35:34;2.80;;;1.80;;
30000;SDS011;16845;48.670;9.000;2023-07-30T12:38:00;3.10;;;1.83;;
30000;SDS011;16845;48.670;9.000;2023-07-30T12:40:27;2.00;;;1.80;;
30000;SDS011;16845;48.670;9.000;2023-07-30T12:42:53;4.23;;;2.00;;
30000;SDS011;16845;48.670;9.000;2023-07-30T12:45:20;3.20;;;2.30;;
30000;SDS011;16845;48.670;9.000;2023-07-30T12:47:46;3.10;;;2.27;;
30000;SDS011;16845;48.670;9.000;2023-07-30T12:50:13;3.63;;;1.90;;
30000;SDS011;16845;48.670;9.000;2023-07-30T12:52:41;3.27;;;2.63;;
30000;SDS011;16845;48.670;9.000;2023-07-30T12:55:07;3.88;;;2.33;;
30000;SDS011;16845;48.670;9.000;2023-07-30T12:57:34;2.38;;;2.00;;
30000;SDS011;16845;48.670;9.000;2023-07-30T13:00:00;3.20;;;2.10;;
30000;SDS011;16845;48.670;9.000;2023-07-30T13:02:27;2.25;;;1.38;;
30000;SDS011;16845;48.670;9.000;2023-07-30T13:04:54;2.25;;;2.05;;
30000;SDS011;16845;48.670;9.000;2023-07-30T13:07:20;2.22;;;1.50;;
30000;SDS011;16845;48.670;9.000;2023-07-30T13:09:48;3.23;;;1.93;;
30000;SDS011;16845;48.670;9.000;2023-07-30T13:12:28;1.80;;;1.33;;
30000;SDS011;16845;48.670;9.000;2023-07-30T13:14:55;2.90;;;1.35;;
30000;SDS011;16845;48.670;9.000;2023-07-30T13:17:21;3.97;;;1.80;;
30000;SDS011;16845;48.670;9.000;2023-07-30T13:19:48;2.75;;;2.00;;
30000;SDS011;16845;48.670;9.000;2023-07-30T13:22:14;2.22;;;1.75;;
30000;SDS011;16845;48.670;9.000;2023-07-30T13:24:41;5.57;;;2.15;;
30000;SDS011;16845;48.670;9.000;2023-07-30T13:27:09;8.43;;;2.63;;
30000;SDS011;16845;48.670;9.000;2023-07-30T13:29:35;2.67;;;1.88;;
30000;SDS011;16845;48.670;9.000;2023-07-30T13:32:02;3.63;;;1.65;;
30000;SDS011;16845;48.670;9.000;2023-07-30T13:34:29;2.15;;;1.70;;
30000;SDS011;16845;48.670;9.000;2023-07-30T13:36:55;3.23;;;1.90;;
30000;SDS011;16845;48.670;9.000;2023-07-30T13:39:22;3.13;;;2.37;;
30000;SDS011;16845;48.670;9.000;2023-07-30T13:41:48;2.17;;;1.48;;
30000;SDS011;16845;48.670;9.000;2023-07-30T13:44:16;1.95;;;1.70;;
30000;SDS011;16845;48.670;9.000;2023-07-30T13:46:42;4.45;;;1.90;;
30000;SDS011;16845;48.670;9.000;2023-07-30T13:49:09;4.60;;;1.75;;
30000;SDS011;16845;48.670;9.000;2023-07-30T13:51:35;3.70;;;1.88;;
30000;SDS011;16845;48.670;9.000;2023-07-30T13:54:03;3.95;;;1.90;;
30000;SDS011;16845;48.670;9.000;2023-07-30T13:56:29;1.98;;;1.60;;
30000;SDS011;16845;48.670;9.000;2023-07-30T13:58:56;4.57;;;2.30;;
30000;SDS011;16845;48.670;9.000;2023-07-30T14:01:24;3.55;;;1.60;;
30000;SDS011;16845;48.670;9.000;2023-07-30T14:03:50;2.80;;;1.90;;
30000;SDS011;16845;48.670;9.000;2023-07-30T14:06:17;3.45;;;1.60;;
30000;SDS011;16845;48.670;9.000;2023-07-30T14:08:43;2.40;;;1.83;;
30000;SDS011;16845;48.670;9.000;2023-07-30T14:11:10;5.90;;;1.80;;
30000;SDS011;16845;48.670;9.000;2023-07-30T14:13:36;4.70;;;1.50;;
30000;SDS011;16845;48.670;9.000;2023-07-30T14:16:03;5.47;;;1.90;;
30000;SDS011;16845;48.670;9.000;2023-07-30T14:18:31;6.25;;;1.63;;
30000;SDS011;16845;48.670;9.000;2023-07-30T14:20:59;3.33;;;2.03;;
30000;SDS011;16845;48.670;9.000;2023-07-30T14:23:25;3.13;;;1.80;;
30000;SDS011;16845;48.670;9.000;2023-07-30T14:25:52;2.87;;;1.47;;
30000;SDS011;16845;48.670;9.000;2023-07-30T14:28:18;6.07;;;2.67;;
30000;SDS011;16845;48.670;9.000;2023-07-30T14:30:45;16.08;;;2.33;;
30000;SDS011;16845;48.670;9.000;2023-07-30T14:33:11;4.67;;;1.83;;
30000;SDS011;16845;48.670;9.000;2023-07-30T14:35:40;3.72;;;1.80;;
30000;SDS011;16845;48.670;9.000;2023-07-30T14:38:06;3.33;;;1.77;;
30000;SDS011;16845;48.670;9.000;2023-07-30T14:40:33;6.97;;;1.77;;
30000;SDS011;16845;48.670;9.000;2023-07-30T14:42:59;4.30;;;1.90;;
30000;SDS011;16845;48.670;9.000;2023-07-30T14:45:26;6.93;;;2.37;;
30000;SDS011;16845;48.670;9.000;2023-07-30T14:47:52;6.88;;;2.67;;
30000;SDS011;16845;48.670;9.000;2023-07-30T14:50:19;3.83;;;1.40;;
30000;SDS011;16845;48.670;9.000;2023-07-30T14:52:47;5.40;;;1.40;;